createdAt,value
2022-12-15T00:02:39.952Z,2.70
2022-12-15T00:06:05.392Z,3.08
2022-12-15T00:09:31.170Z,3.33
2022-12-15T00:12:58.118Z,2.72
2022-12-15T00:16:24.544Z,2.80
2022-12-15T00:19:50.304Z,2.55
2022-12-15T00:23:15.707Z,2.63
2022-12-15T00:26:41.205Z,2.88
2022-12-15T00:30:07.862Z,2.67
2022-12-15T00:33:33.654Z,2.65
2022-12-15T00:36:59.180Z,2.75
2022-12-15T00:40:08.579Z,2.78
2022-12-15T00:43:16.733Z,3.00
2022-12-15T00:46:55.374Z,2.88
2022-12-15T00:50:21.081Z,2.60
2022-12-15T00:53:46.289Z,2.47
2022-12-15T00:57:11.496Z,2.35
2022-12-15T01:00:36.754Z,2.67
2022-12-15T01:04:03.751Z,2.50
2022-12-15T01:07:29.267Z,2.42
2022-12-15T01:10:54.424Z,2.53
2022-12-15T01:14:19.733Z,2.50
2022-12-15T01:17:44.788Z,2.65
2022-12-15T01:20:57.857Z,2.40
2022-12-15T01:24:06.654Z,2.50
2022-12-15T01:27:15.066Z,2.33
2022-12-15T01:30:24.601Z,2.72
2022-12-15T01:33:33.107Z,2.42
2022-12-15T01:36:42.653Z,2.72
2022-12-15T01:40:08.530Z,2.20
2022-12-15T01:43:18.148Z,2.20
2022-12-15T01:46:26.283Z,2.05
2022-12-15T01:49:34.521Z,2.63
2022-12-15T01:52:43.766Z,2.53
2022-12-15T01:55:54.120Z,2.30
2022-12-15T01:59:02.645Z,2.15
2022-12-15T02:02:10.872Z,2.22
2022-12-15T02:05:19.274Z,2.50
2022-12-15T02:08:28.558Z,2.60
2022-12-15T02:12:03.569Z,2.50
2022-12-15T02:15:16.921Z,2.50
2022-12-15T02:18:27.358Z,2.15
2022-12-15T02:21:36.946Z,2.20
2022-12-15T02:24:59.374Z,2.40
2022-12-15T02:28:08.363Z,2.45
2022-12-15T02:31:36.252Z,2.30
2022-12-15T02:34:45.920Z,2.30
2022-12-15T02:37:53.747Z,1.88
2022-12-15T02:41:02.558Z,2.42
2022-12-15T02:44:11.986Z,2.22
2022-12-15T02:47:26.809Z,2.60
2022-12-15T02:50:58.212Z,2.28
2022-12-15T02:54:16.682Z,2.50
2022-12-15T02:57:26.728Z,2.50
2022-12-15T03:00:36.219Z,2.28
2022-12-15T03:03:45.795Z,2.38
2022-12-15T03:07:00.859Z,2.22
2022-12-15T03:10:10.249Z,2.45
2022-12-15T03:13:18.259Z,2.55
2022-12-15T03:16:26.211Z,2.60
2022-12-15T03:19:35.719Z,2.72
2022-12-15T03:22:44.595Z,2.40
2022-12-15T03:25:53.246Z,2.05
2022-12-15T03:29:01.502Z,2.70
2022-12-15T03:32:09.409Z,2.72
2022-12-15T03:35:18.737Z,2.42
2022-12-15T03:38:26.858Z,2.50
2022-12-15T03:41:35.234Z,2.20
2022-12-15T03:44:43.395Z,2.25
2022-12-15T03:47:51.740Z,2.90
2022-12-15T03:51:01.385Z,2.45
2022-12-15T03:54:09.392Z,2.53
2022-12-15T03:57:17.594Z,2.53
2022-12-15T04:00:25.658Z,2.83
2022-12-15T04:03:34.161Z,2.38
2022-12-15T04:06:44.238Z,2.47
2022-12-15T04:09:52.330Z,2.85
2022-12-15T04:13:00.652Z,2.70
2022-12-15T04:16:09.215Z,2.30
2022-12-15T04:19:34.678Z,2.15
2022-12-15T04:22:45.527Z,2.75
2022-12-15T04:26:11.267Z,2.50
2022-12-15T04:29:36.426Z,2.50
2022-12-15T04:33:01.474Z,2.15
2022-12-15T04:36:26.732Z,2.80
2022-12-15T04:39:54.721Z,2.60
2022-12-15T04:43:20.536Z,2.33
2022-12-15T04:46:45.848Z,2.50
2022-12-15T04:50:10.909Z,2.50
2022-12-15T04:53:36.890Z,2.55
2022-12-15T04:57:03.829Z,2.35
2022-12-15T05:00:30.926Z,2.28
2022-12-15T05:03:56.683Z,2.45
2022-12-15T05:07:21.975Z,2.30
2022-12-15T05:10:47.370Z,2.78
2022-12-15T05:14:14.360Z,2.30
2022-12-15T05:17:41.809Z,3.13
2022-12-15T05:21:07.509Z,2.95
2022-12-15T05:24:32.646Z,2.33
2022-12-15T05:27:57.774Z,2.47
2022-12-15T05:31:26.382Z,2.38
2022-12-15T05:34:36.109Z,2.40
2022-12-15T05:37:44.059Z,1.98
2022-12-15T05:40:52.454Z,2.20
2022-12-15T05:44:00.657Z,2.10
2022-12-15T05:47:11.374Z,2.10
2022-12-15T05:50:19.157Z,2.33
2022-12-15T05:53:27.506Z,2.60
2022-12-15T05:56:35.602Z,2.50
2022-12-15T05:59:43.557Z,2.30
2022-12-15T06:02:53.182Z,2.33
2022-12-15T06:06:01.325Z,2.08
2022-12-15T06:09:10.066Z,2.40
2022-12-15T06:12:18.161Z,2.22
2022-12-15T06:15:26.493Z,2.00
2022-12-15T06:18:37.498Z,1.83
2022-12-15T06:21:45.653Z,2.15
2022-12-15T06:24:53.823Z,2.17
2022-12-15T06:28:02.108Z,2.08
2022-12-15T06:31:11.215Z,2.50
2022-12-15T06:34:21.415Z,2.65
2022-12-15T06:37:29.320Z,2.30
2022-12-15T06:40:38.281Z,2.45
2022-12-15T06:43:50.316Z,2.40
2022-12-15T06:46:58.701Z,1.90
2022-12-15T06:50:08.970Z,2.42
2022-12-15T06:53:17.802Z,2.20
2022-12-15T06:56:33.045Z,1.80
2022-12-15T06:59:42.199Z,2.20
2022-12-15T07:02:50.693Z,2.78
2022-12-15T07:06:04.025Z,2.00
2022-12-15T07:09:15.905Z,2.05
2022-12-15T07:12:24.130Z,2.28
2022-12-15T07:15:32.893Z,2.22
2022-12-15T07:18:41.246Z,2.03
2022-12-15T07:21:50.730Z,2.50
2022-12-15T07:24:59.054Z,1.88
2022-12-15T07:28:07.502Z,1.90
2022-12-15T07:31:15.911Z,1.85
2022-12-15T07:34:24.210Z,2.22
2022-12-15T07:37:33.517Z,2.42
2022-12-15T07:40:41.582Z,2.17
2022-12-15T07:43:49.736Z,2.15
2022-12-15T07:46:57.999Z,1.88
2022-12-15T07:50:06.975Z,2.05
2022-12-15T07:53:16.363Z,2.20
2022-12-15T07:56:24.548Z,2.33
2022-12-15T07:59:32.857Z,2.08
2022-12-15T08:02:41.607Z,1.98
2022-12-15T08:05:49.565Z,2.20
2022-12-15T08:08:59.311Z,2.00
2022-12-15T08:12:08.104Z,1.70
2022-12-15T08:15:16.278Z,1.80
2022-12-15T08:18:24.169Z,1.50
2022-12-15T08:21:32.153Z,1.92
2022-12-15T08:24:41.634Z,1.88
2022-12-15T08:27:51.494Z,1.60
2022-12-15T08:31:03.972Z,1.77
2022-12-15T08:37:19.902Z,1.77
2022-12-15T08:40:29.548Z,1.83
2022-12-15T08:43:41.127Z,1.40
2022-12-15T08:46:53.925Z,2.15
2022-12-15T08:50:01.861Z,1.55
2022-12-15T08:53:32.696Z,1.77
2022-12-15T08:56:40.240Z,1.73
2022-12-15T08:59:48.360Z,1.70
2022-12-15T09:02:56.682Z,1.48
2022-12-15T09:06:05.183Z,1.48
2022-12-15T09:09:13.551Z,1.42
2022-12-15T09:12:23.050Z,1.65
2022-12-15T09:16:00.272Z,1.33
2022-12-15T09:19:00.511Z,1.45
2022-12-15T09:22:08.869Z,1.40
2022-12-15T09:25:16.967Z,1.30
2022-12-15T09:28:26.880Z,1.48
2022-12-15T09:31:37.486Z,1.50
2022-12-15T09:34:45.799Z,1.27
2022-12-15T09:37:54.078Z,1.00
2022-12-15T09:41:09.494Z,1.20
2022-12-15T09:44:19.129Z,1.27
2022-12-15T09:47:31.591Z,1.52
2022-12-15T09:50:39.954Z,1.30
2022-12-15T09:53:56.432Z,1.25
2022-12-15T09:57:08.668Z,1.00
2022-12-15T10:00:22.422Z,1.30
2022-12-15T10:03:35.857Z,1.10
2022-12-15T10:06:46.289Z,1.13
2022-12-15T10:09:58.654Z,0.93
2022-12-15T10:13:10.816Z,1.10
2022-12-15T10:16:24.085Z,1.40
2022-12-15T10:19:50.143Z,1.00
2022-12-15T10:22:58.522Z,1.30
2022-12-15T10:26:16.951Z,1.25
2022-12-15T10:29:30.369Z,1.02
2022-12-15T10:32:50.686Z,1.30
2022-12-15T10:35:58.725Z,1.20
2022-12-15T10:39:07.169Z,1.30
2022-12-15T10:42:21.052Z,1.20
2022-12-15T10:45:35.991Z,1.10
2022-12-15T10:48:48.788Z,1.33
2022-12-15T10:51:58.162Z,0.93
2022-12-15T10:55:29.265Z,1.00
2022-12-15T10:58:47.447Z,1.00
2022-12-15T11:02:00.375Z,1.20
2022-12-15T11:05:16.854Z,0.63
2022-12-15T11:08:25.298Z,1.25
2022-12-15T11:11:51.403Z,1.35
2022-12-15T11:14:59.669Z,1.30
2022-12-15T11:18:12.741Z,1.30
2022-12-15T11:21:23.429Z,0.98
2022-12-15T11:24:35.917Z,0.90
2022-12-15T11:27:44.395Z,0.93
2022-12-15T11:30:56.786Z,0.90
2022-12-15T11:34:04.950Z,1.40
2022-12-15T11:37:36.987Z,0.98
2022-12-15T11:40:45.347Z,1.10
2022-12-15T11:44:06.299Z,1.25
2022-12-15T11:47:18.052Z,1.10
2022-12-15T11:50:30.307Z,1.15
2022-12-15T11:53:51.194Z,1.15
2022-12-15T11:57:03.172Z,0.85
2022-12-15T12:00:19.613Z,1.10
2022-12-15T12:03:31.007Z,1.48
2022-12-15T12:06:41.543Z,1.25
2022-12-15T12:09:56.756Z,1.27
2022-12-15T12:13:13.030Z,1.00
2022-12-15T12:16:28.614Z,1.25
2022-12-15T12:19:39.060Z,1.30
2022-12-15T12:22:50.664Z,1.20
2022-12-15T12:26:03.456Z,1.00
2022-12-15T12:29:15.162Z,0.98
2022-12-15T12:32:27.850Z,1.30
2022-12-15T12:35:39.252Z,1.30
2022-12-15T12:38:50.507Z,1.17
2022-12-15T12:42:02.046Z,1.30
2022-12-15T12:45:13.119Z,1.17
2022-12-15T12:48:23.437Z,1.33
2022-12-15T12:51:31.938Z,1.10
2022-12-15T12:54:45.204Z,0.80
2022-12-15T12:57:54.813Z,0.90
2022-12-15T13:01:07.994Z,1.05
2022-12-15T13:04:40.718Z,1.10
2022-12-15T13:07:54.350Z,1.27
2022-12-15T13:11:20.345Z,1.00
2022-12-15T13:14:48.411Z,1.00
2022-12-15T13:18:01.095Z,1.48
2022-12-15T13:21:16.617Z,1.15
2022-12-15T13:24:31.118Z,1.02
2022-12-15T13:27:40.684Z,1.10
2022-12-15T13:31:28.958Z,2.00
2022-12-15T13:34:38.693Z,1.38
2022-12-15T13:37:50.515Z,1.85
2022-12-15T13:40:58.654Z,1.65
2022-12-15T13:44:09.011Z,1.83
2022-12-15T13:47:19.386Z,1.27
2022-12-15T13:50:37.718Z,2.70
2022-12-15T13:53:51.463Z,1.48
2022-12-15T13:57:02.744Z,1.70
2022-12-15T14:00:18.484Z,1.25
2022-12-15T14:03:26.878Z,2.03
2022-12-15T14:06:40.118Z,1.50
2022-12-15T14:12:59.213Z,1.67
2022-12-15T14:16:15.446Z,1.70
2022-12-15T14:19:23.564Z,1.40
2022-12-15T14:22:31.567Z,1.77
2022-12-15T14:25:42.073Z,1.70
2022-12-15T14:28:50.587Z,2.08
2022-12-15T14:31:58.833Z,2.17
2022-12-15T14:35:07.753Z,2.15
2022-12-15T14:38:17.114Z,1.60
2022-12-15T14:41:27.944Z,2.25
2022-12-15T14:44:39.166Z,2.67
2022-12-15T14:48:13.634Z,3.28
2022-12-15T14:51:21.020Z,2.10
2022-12-15T14:54:35.537Z,1.90
2022-12-15T14:57:45.961Z,1.95
2022-12-15T15:00:54.875Z,2.28
2022-12-15T15:04:03.438Z,1.90
2022-12-15T15:07:17.479Z,1.88
2022-12-15T15:10:29.039Z,2.20
2022-12-15T15:13:40.407Z,2.38
2022-12-15T15:17:00.013Z,4.68
2022-12-15T15:20:17.496Z,1.83
2022-12-15T15:23:25.285Z,1.58
2022-12-15T15:26:33.362Z,1.60
2022-12-15T15:29:43.059Z,1.80
2022-12-15T15:32:55.737Z,1.80
2022-12-15T15:36:04.286Z,1.55
2022-12-15T15:39:15.060Z,2.10
2022-12-15T15:42:26.741Z,1.67
2022-12-15T15:45:41.088Z,1.90
2022-12-15T15:48:50.971Z,1.60
2022-12-15T15:51:59.288Z,2.00
2022-12-15T15:55:08.326Z,1.55
2022-12-15T15:58:16.317Z,1.80
2022-12-15T16:01:25.990Z,3.50
2022-12-15T16:04:36.306Z,1.67
2022-12-15T16:07:44.998Z,1.85
2022-12-15T16:10:53.165Z,1.60
2022-12-15T16:14:01.520Z,2.13
2022-12-15T16:17:11.523Z,1.65
2022-12-15T16:20:21.176Z,1.52
2022-12-15T16:23:29.585Z,1.92
2022-12-15T16:26:38.941Z,1.70
2022-12-15T16:29:47.291Z,1.77
2022-12-15T16:32:56.635Z,1.80
2022-12-15T16:36:09.557Z,1.83
2022-12-15T16:39:25.577Z,3.63
2022-12-15T16:42:33.430Z,1.73
2022-12-15T16:45:41.646Z,2.15
2022-12-15T16:48:51.892Z,2.05
2022-12-15T16:52:00.225Z,1.55
2022-12-15T16:55:09.801Z,3.50
2022-12-15T16:58:17.967Z,1.98
2022-12-15T17:01:26.282Z,1.83
2022-12-15T17:04:36.235Z,2.65
2022-12-15T17:07:45.013Z,2.30
2022-12-15T17:10:53.314Z,2.28
2022-12-15T17:14:01.835Z,2.40
2022-12-15T17:17:13.274Z,2.60
2022-12-15T17:20:31.468Z,2.85
2022-12-15T17:23:39.838Z,4.55
2022-12-15T17:26:48.161Z,4.55
2022-12-15T17:29:56.561Z,12.05
2022-12-15T17:33:07.011Z,25.05
2022-12-15T17:36:17.581Z,42.40
2022-12-15T17:39:26.157Z,40.88
2022-12-15T17:42:34.415Z,36.20
2022-12-15T17:45:42.826Z,29.23
2022-12-15T17:48:51.063Z,30.05
2022-12-15T17:52:01.059Z,26.23
2022-12-15T17:55:20.729Z,28.65
2022-12-15T17:58:28.569Z,25.30
2022-12-15T18:01:36.931Z,26.25
2022-12-15T18:04:45.157Z,24.30
2022-12-15T18:07:55.765Z,22.55
2022-12-15T18:11:03.739Z,22.77
2022-12-15T18:14:13.798Z,21.92
2022-12-15T18:17:21.842Z,21.63
2022-12-15T18:20:29.982Z,18.92
2022-12-15T18:23:39.422Z,20.25
2022-12-15T18:26:47.323Z,19.30
2022-12-15T18:29:56.411Z,19.35
2022-12-15T18:33:04.361Z,17.83
2022-12-15T18:36:12.354Z,17.35
2022-12-15T18:39:23.429Z,15.82
2022-12-15T18:42:31.663Z,15.70
2022-12-15T18:45:39.866Z,16.58
2022-12-15T18:48:47.891Z,16.67
2022-12-15T18:51:56.136Z,14.45
2022-12-15T18:55:08.027Z,14.82
2022-12-15T18:58:21.056Z,15.15
2022-12-15T19:04:37.022Z,14.13
2022-12-15T19:07:45.222Z,13.60
2022-12-15T19:10:55.881Z,12.55
2022-12-15T19:14:04.275Z,11.73
2022-12-15T19:17:27.373Z,11.73
2022-12-15T19:20:52.723Z,11.30
2022-12-15T19:24:00.600Z,10.70
2022-12-15T19:27:12.587Z,11.95
2022-12-15T19:30:22.060Z,9.95
2022-12-15T19:33:30.902Z,11.02
2022-12-15T19:36:39.185Z,10.45
2022-12-15T19:39:47.824Z,10.00
2022-12-15T19:42:58.214Z,9.90
2022-12-15T19:46:06.569Z,8.95
2022-12-15T19:49:15.116Z,9.85
2022-12-15T19:52:22.959Z,8.05
2022-12-15T19:55:34.814Z,8.90
2022-12-15T19:58:44.205Z,8.05
2022-12-15T20:01:52.781Z,9.05
2022-12-15T20:05:02.361Z,8.57
2022-12-15T20:08:11.445Z,7.50
2022-12-15T20:11:20.454Z,8.07
2022-12-15T20:14:30.315Z,7.20
2022-12-15T20:17:38.682Z,6.78
2022-12-15T20:20:47.411Z,7.88
2022-12-15T20:23:57.184Z,7.95
2022-12-15T20:27:11.625Z,6.75
2022-12-15T20:30:22.885Z,5.93
2022-12-15T20:33:31.309Z,6.60
2022-12-15T20:36:39.916Z,6.50
2022-12-15T20:39:51.394Z,6.00
2022-12-15T20:43:02.036Z,5.47
2022-12-15T20:46:13.827Z,6.25
2022-12-15T20:49:22.772Z,6.68
2022-12-15T20:52:31.210Z,6.22
2022-12-15T20:55:39.522Z,5.70
2022-12-15T20:58:47.652Z,5.78
2022-12-15T21:01:57.382Z,6.70
2022-12-15T21:05:05.631Z,6.20
2022-12-15T21:08:16.154Z,7.90
2022-12-15T21:11:25.341Z,5.15
2022-12-15T21:14:33.550Z,5.13
2022-12-15T21:17:43.667Z,5.75
2022-12-15T21:20:53.656Z,5.45
2022-12-15T21:24:04.430Z,5.60
2022-12-15T21:27:12.931Z,5.38
2022-12-15T21:30:22.580Z,5.50
2022-12-15T21:33:32.326Z,5.57
2022-12-15T21:36:40.430Z,5.22
2022-12-15T21:39:48.341Z,4.82
2022-12-15T21:42:56.585Z,5.93
2022-12-15T21:46:11.618Z,5.22
2022-12-15T21:49:21.157Z,5.22
2022-12-15T21:52:28.964Z,4.68
2022-12-15T21:55:39.381Z,3.97
2022-12-15T21:58:49.017Z,4.60
2022-12-15T22:01:56.908Z,4.65
2022-12-15T22:05:10.922Z,3.92
2022-12-15T22:08:19.939Z,4.20
2022-12-15T22:11:29.030Z,4.05
2022-12-15T22:14:37.091Z,5.35
2022-12-15T22:17:45.123Z,4.43
2022-12-15T22:20:54.321Z,4.03
2022-12-15T22:24:02.033Z,4.45
2022-12-15T22:27:15.294Z,3.83
2022-12-15T22:30:25.974Z,3.67
2022-12-15T22:33:34.216Z,4.10
2022-12-15T22:36:43.825Z,4.18
2022-12-15T22:39:52.131Z,3.50
2022-12-15T22:42:59.937Z,3.97
2022-12-15T22:46:10.845Z,4.22
2022-12-15T22:49:19.820Z,3.92
2022-12-15T22:52:29.521Z,3.50
2022-12-15T22:55:37.717Z,3.72
2022-12-15T22:58:46.583Z,3.95
2022-12-15T23:01:54.488Z,3.38
2022-12-15T23:05:02.571Z,3.67
2022-12-15T23:08:12.277Z,3.58
2022-12-15T23:11:38.115Z,4.32
2022-12-15T23:15:03.585Z,3.03
2022-12-15T23:18:11.658Z,3.90
2022-12-15T23:21:19.765Z,3.47
2022-12-15T23:24:29.281Z,3.08
2022-12-15T23:27:37.793Z,3.55
2022-12-15T23:30:49.850Z,3.05
2022-12-15T23:33:57.989Z,2.80
2022-12-15T23:37:06.140Z,3.03
2022-12-15T23:40:21.338Z,3.83
2022-12-15T23:43:29.906Z,2.85
2022-12-15T23:46:38.400Z,3.33
2022-12-15T23:49:46.557Z,3.08
2022-12-15T23:52:54.879Z,3.20
2022-12-15T23:56:09.964Z,2.75
2022-12-15T23:59:18.458Z,3.05
